sensor_id;sensor_type;location;lat;lon;timestamp;pressure;altitude;pressure_sealevel;temperature;humidity
4617;BME280;2321;42.704;23.384;2023-09-19T00:00:38;95839.47;;;17.70;nan
4617;BME280;2321;42.704;23.384;2023-09-19T00:03:06;95833.50;;;17.68;nan
4617;BME280;2321;42.704;23.384;2023-09-19T00:05:36;95833.72;;;17.66;nan
4617;BME280;2321;42.704;23.384;2023-09-19T00:08:03;95837.91;;;17.62;nan
4617;BME280;2321;42.704;23.384;2023-09-19T00:10:31;95842.25;;;17.63;nan
4617;BME280;2321;42.704;23.384;2023-09-19T00:13:00;95834.41;;;17.61;nan
4617;BME280;2321;42.704;23.384;2023-09-19T00:15:30;95837.09;;;17.61;nan
4617;BME280;2321;42.704;23.384;2023-09-19T00:17:58;95834.19;;;17.63;nan
4617;BME280;2321;42.704;23.384;2023-09-19T00:20:25;95837.66;;;17.63;nan
4617;BME280;2321;42.704;23.384;2023-09-19T00:22:56;95827.34;;;17.60;nan
4617;BME280;2321;42.704;23.384;2023-09-19T00:25:31;95824.22;;;17.63;nan
4617;BME280;2321;42.704;23.384;2023-09-19T00:28:00;95833.13;;;17.64;nan
4617;BME280;2321;42.704;23.384;2023-09-19T00:30:27;95827.34;;;17.60;nan
4617;BME280;2321;42.704;23.384;2023-09-19T00:32:54;95829.00;;;17.61;nan
4617;BME280;2321;42.704;23.384;2023-09-19T00:35:21;95829.47;;;17.58;nan
4617;BME280;2321;42.704;23.384;2023-09-19T00:37:49;95828.41;;;17.59;nan
4617;BME280;2321;42.704;23.384;2023-09-19T00:40:17;95819.16;;;17.55;nan
4617;BME280;2321;42.704;23.384;2023-09-19T00:42:43;95814.22;;;17.52;nan
4617;BME280;2321;42.704;23.384;2023-09-19T00:45:11;95812.81;;;17.49;nan
4617;BME280;2321;42.704;23.384;2023-09-19T00:47:38;95808.44;;;17.48;nan
4617;BME280;2321;42.704;23.384;2023-09-19T00:50:06;95804.34;;;17.46;nan
4617;BME280;2321;42.704;23.384;2023-09-19T00:52:35;95804.34;;;17.46;nan
4617;BME280;2321;42.704;23.384;2023-09-19T00:55:04;95803.19;;;17.41;nan
4617;BME280;2321;42.704;23.384;2023-09-19T00:57:33;95808.19;;;17.38;nan
4617;BME280;2321;42.704;23.384;2023-09-19T01:00:00;95809.47;;;17.35;nan
4617;BME280;2321;42.704;23.384;2023-09-19T01:02:31;95809.28;;;17.30;nan
4617;BME280;2321;42.704;23.384;2023-09-19T01:04:57;95808.69;;;17.28;nan
4617;BME280;2321;42.704;23.384;2023-09-19T01:07:24;95805.44;;;17.26;nan
4617;BME280;2321;42.704;23.384;2023-09-19T01:09:51;95805.88;;;17.23;nan
4617;BME280;2321;42.704;23.384;2023-09-19T01:12:22;95804.59;;;17.25;nan
4617;BME280;2321;42.704;23.384;2023-09-19T01:14:54;95809.16;;;17.25;nan
4617;BME280;2321;42.704;23.384;2023-09-19T01:17:24;95809.59;;;17.22;nan
4617;BME280;2321;42.704;23.384;2023-09-19T01:20:11;95805.63;;;17.24;nan
4617;BME280;2321;42.704;23.384;2023-09-19T01:22:44;95800.94;;;17.19;nan
4617;BME280;2321;42.704;23.384;2023-09-19T01:28:06;95813.16;;;17.15;nan
4617;BME280;2321;42.704;23.384;2023-09-19T01:30:39;95824.16;;;17.14;nan
4617;BME280;2321;42.704;23.384;2023-09-19T01:33:08;95817.56;;;17.09;nan
4617;BME280;2321;42.704;23.384;2023-09-19T01:35:37;95820.41;;;17.15;nan
4617;BME280;2321;42.704;23.384;2023-09-19T01:38:04;95818.78;;;17.14;nan
4617;BME280;2321;42.704;23.384;2023-09-19T01:40:32;95815.25;;;17.13;nan
4617;BME280;2321;42.704;23.384;2023-09-19T01:43:15;95807.19;;;17.13;nan
4617;BME280;2321;42.704;23.384;2023-09-19T01:45:46;95804.94;;;17.10;nan
4617;BME280;2321;42.704;23.384;2023-09-19T01:48:18;95805.59;;;17.05;nan
4617;BME280;2321;42.704;23.384;2023-09-19T01:50:48;95801.94;;;16.99;nan
4617;BME280;2321;42.704;23.384;2023-09-19T01:53:21;95812.31;;;16.96;nan
4617;BME280;2321;42.704;23.384;2023-09-19T01:55:49;95803.44;;;16.95;nan
4617;BME280;2321;42.704;23.384;2023-09-19T01:58:17;95813.81;;;16.92;nan
4617;BME280;2321;42.704;23.384;2023-09-19T02:00:48;95811.34;;;16.90;nan
4617;BME280;2321;42.704;23.384;2023-09-19T02:03:16;95816.50;;;16.92;nan
4617;BME280;2321;42.704;23.384;2023-09-19T02:05:47;95826.00;;;16.94;nan
4617;BME280;2321;42.704;23.384;2023-09-19T02:08:15;95825.75;;;16.96;nan
4617;BME280;2321;42.704;23.384;2023-09-19T02:10:43;95827.03;;;16.93;nan
4617;BME280;2321;42.704;23.384;2023-09-19T02:13:14;95825.56;;;16.97;nan
4617;BME280;2321;42.704;23.384;2023-09-19T02:15:42;95817.69;;;16.96;nan
4617;BME280;2321;42.704;23.384;2023-09-19T02:18:10;95820.38;;;16.96;nan
4617;BME280;2321;42.704;23.384;2023-09-19T02:20:37;95814.22;;;16.95;nan
4617;BME280;2321;42.704;23.384;2023-09-19T02:23:04;95809.72;;;16.89;nan
4617;BME280;2321;42.704;23.384;2023-09-19T02:25:31;95812.84;;;16.86;nan
4617;BME280;2321;42.704;23.384;2023-09-19T02:27:58;95812.63;;;16.87;nan
4617;BME280;2321;42.704;23.384;2023-09-19T02:30:26;95810.16;;;16.86;nan
4617;BME280;2321;42.704;23.384;2023-09-19T02:32:53;95808.50;;;16.85;nan
4617;BME280;2321;42.704;23.384;2023-09-19T02:35:21;95799.41;;;16.86;nan
4617;BME280;2321;42.704;23.384;2023-09-19T02:37:48;95799.63;;;16.84;nan
4617;BME280;2321;42.704;23.384;2023-09-19T02:40:15;95794.09;;;16.79;nan
4617;BME280;2321;42.704;23.384;2023-09-19T02:42:45;95788.13;;;16.77;nan
4617;BME280;2321;42.704;23.384;2023-09-19T02:45:14;95790.19;;;16.75;nan
4617;BME280;2321;42.704;23.384;2023-09-19T02:47:41;95781.53;;;16.73;nan
4617;BME280;2321;42.704;23.384;2023-09-19T02:50:08;95782.81;;;16.70;nan
4617;BME280;2321;42.704;23.384;2023-09-19T02:52:37;95788.22;;;16.63;nan
4617;BME280;2321;42.704;23.384;2023-09-19T02:55:04;95776.28;;;16.59;nan
4617;BME280;2321;42.704;23.384;2023-09-19T02:57:31;95772.78;;;16.59;nan
4617;BME280;2321;42.704;23.384;2023-09-19T02:59:59;95774.47;;;16.53;nan
4617;BME280;2321;42.704;23.384;2023-09-19T03:02:26;95766.19;;;16.54;nan
4617;BME280;2321;42.704;23.384;2023-09-19T03:04:53;95773.22;;;16.55;nan
4617;BME280;2321;42.704;23.384;2023-09-19T03:07:21;95770.97;;;16.52;nan
4617;BME280;2321;42.704;23.384;2023-09-19T03:09:51;95773.88;;;16.51;nan
4617;BME280;2321;42.704;23.384;2023-09-19T03:12:18;95762.91;;;16.52;nan
4617;BME280;2321;42.704;23.384;2023-09-19T03:14:45;95771.41;;;16.49;nan
4617;BME280;2321;42.704;23.384;2023-09-19T03:17:12;95779.69;;;16.48;nan
4617;BME280;2321;42.704;23.384;2023-09-19T03:19:40;95772.44;;;16.48;nan
4617;BME280;2321;42.704;23.384;2023-09-19T03:22:06;95761.69;;;16.48;nan
4617;BME280;2321;42.704;23.384;2023-09-19T03:24:33;95755.50;;;16.48;nan
4617;BME280;2321;42.704;23.384;2023-09-19T03:27:03;95754.47;;;16.49;nan
4617;BME280;2321;42.704;23.384;2023-09-19T03:29:30;95751.97;;;16.47;nan
4617;BME280;2321;42.704;23.384;2023-09-19T03:31:57;95754.91;;;16.46;nan
4617;BME280;2321;42.704;23.384;2023-09-19T03:34:23;95761.56;;;16.43;nan
4617;BME280;2321;42.704;23.384;2023-09-19T03:36:50;95761.38;;;16.38;nan
4617;BME280;2321;42.704;23.384;2023-09-19T03:39:17;95759.75;;;16.37;nan
4617;BME280;2321;42.704;23.384;2023-09-19T03:41:43;95761.59;;;16.36;nan
4617;BME280;2321;42.704;23.384;2023-09-19T03:44:11;95765.31;;;16.35;nan
4617;BME280;2321;42.704;23.384;2023-09-19T03:46:38;95776.31;;;16.33;nan
4617;BME280;2321;42.704;23.384;2023-09-19T03:49:05;95777.94;;;16.34;nan
4617;BME280;2321;42.704;23.384;2023-09-19T03:51:31;95781.06;;;16.31;nan
4617;BME280;2321;42.704;23.384;2023-09-19T03:53:59;95772.41;;;16.29;nan
4617;BME280;2321;42.704;23.384;2023-09-19T03:56:26;95777.56;;;16.31;nan
4617;BME280;2321;42.704;23.384;2023-09-19T03:58:53;95781.53;;;16.28;nan
4617;BME280;2321;42.704;23.384;2023-09-19T04:01:22;95775.09;;;16.29;nan
4617;BME280;2321;42.704;23.384;2023-09-19T04:03:48;95793.06;;;16.29;nan
4617;BME280;2321;42.704;23.384;2023-09-19T04:06:17;95789.59;;;16.28;nan
4617;BME280;2321;42.704;23.384;2023-09-19T04:08:43;95788.97;;;16.26;nan
4617;BME280;2321;42.704;23.384;2023-09-19T04:11:11;95793.75;;;16.24;nan
4617;BME280;2321;42.704;23.384;2023-09-19T04:13:38;95785.28;;;16.20;nan
4617;BME280;2321;42.704;23.384;2023-09-19T04:16:04;95789.00;;;16.19;nan
4617;BME280;2321;42.704;23.384;2023-09-19T04:18:33;95786.56;;;16.18;nan
4617;BME280;2321;42.704;23.384;2023-09-19T04:21:03;95804.31;;;16.19;nan
4617;BME280;2321;42.704;23.384;2023-09-19T04:23:30;95797.28;;;16.18;nan
4617;BME280;2321;42.704;23.384;2023-09-19T04:25:57;95800.81;;;16.18;nan
4617;BME280;2321;42.704;23.384;2023-09-19T04:28:24;95800.81;;;16.18;nan
4617;BME280;2321;42.704;23.384;2023-09-19T04:30:53;95791.47;;;16.21;nan
4617;BME280;2321;42.704;23.384;2023-09-19T04:33:20;95798.50;;;16.22;nan
4617;BME280;2321;42.704;23.384;2023-09-19T04:35:50;95787.94;;;16.27;nan
4617;BME280;2321;42.704;23.384;2023-09-19T04:38:17;95790.38;;;16.29;nan
4617;BME280;2321;42.704;23.384;2023-09-19T04:40:44;95796.16;;;16.32;nan
4617;BME280;2321;42.704;23.384;2023-09-19T04:43:10;95794.88;;;16.35;nan
4617;BME280;2321;42.704;23.384;2023-09-19T04:45:38;95794.25;;;16.40;nan
4617;BME280;2321;42.704;23.384;2023-09-19T04:48:05;95796.47;;;16.43;nan
4617;BME280;2321;42.704;23.384;2023-09-19T04:50:34;95797.06;;;16.45;nan
4617;BME280;2321;42.704;23.384;2023-09-19T04:53:03;95789.41;;;16.49;nan
4617;BME280;2321;42.704;23.384;2023-09-19T04:55:30;95787.31;;;16.51;nan
4617;BME280;2321;42.704;23.384;2023-09-19T04:57:58;95784.41;;;16.52;nan
4617;BME280;2321;42.704;23.384;2023-09-19T05:00:25;95784.56;;;16.58;nan
4617;BME280;2321;42.704;23.384;2023-09-19T05:02:55;95781.19;;;16.62;nan
4617;BME280;2321;42.704;23.384;2023-09-19T05:05:22;95782.66;;;16.65;nan
4617;BME280;2321;42.704;23.384;2023-09-19T05:07:50;95779.53;;;16.68;nan
4617;BME280;2321;42.704;23.384;2023-09-19T05:10:20;95779.53;;;16.68;nan
4617;BME280;2321;42.704;23.384;2023-09-19T05:12:47;95780.09;;;16.70;nan
4617;BME280;2321;42.704;23.384;2023-09-19T05:15:16;95778.59;;;16.74;nan
4617;BME280;2321;42.704;23.384;2023-09-19T05:17:47;95787.06;;;16.78;nan
4617;BME280;2321;42.704;23.384;2023-09-19T05:20:14;95781.03;;;16.83;nan
4617;BME280;2321;42.704;23.384;2023-09-19T05:22:50;95775.59;;;16.90;nan
4617;BME280;2321;42.704;23.384;2023-09-19T05:25:16;95775.50;;;16.96;nan
4617;BME280;2321;42.704;23.384;2023-09-19T05:27:45;95771.31;;;17.01;nan
4617;BME280;2321;42.704;23.384;2023-09-19T05:30:12;95769.16;;;17.09;nan
4617;BME280;2321;42.704;23.384;2023-09-19T05:32:41;95770.69;;;17.17;nan
4617;BME280;2321;42.704;23.384;2023-09-19T05:35:09;95765.88;;;17.26;nan
4617;BME280;2321;42.704;23.384;2023-09-19T05:37:38;95760.19;;;17.35;nan
4617;BME280;2321;42.704;23.384;2023-09-19T05:40:05;95737.72;;;17.29;nan
4617;BME280;2321;42.704;23.384;2023-09-19T05:42:35;95758.31;;;17.54;nan
4617;BME280;2321;42.704;23.384;2023-09-19T05:45:05;95755.28;;;17.62;nan
4617;BME280;2321;42.704;23.384;2023-09-19T05:47:32;95751.69;;;17.69;nan
4617;BME280;2321;42.704;23.384;2023-09-19T05:49:59;95751.22;;;17.72;nan
4617;BME280;2321;42.704;23.384;2023-09-19T05:52:26;95754.03;;;17.77;nan
4617;BME280;2321;42.704;23.384;2023-09-19T05:54:52;95751.91;;;17.79;nan
4617;BME280;2321;42.704;23.384;2023-09-19T05:57:19;95755.34;;;17.86;nan
4617;BME280;2321;42.704;23.384;2023-09-19T05:59:47;95757.94;;;17.93;nan
4617;BME280;2321;42.704;23.384;2023-09-19T06:02:17;95761.34;;;18.01;nan
4617;BME280;2321;42.704;23.384;2023-09-19T06:04:45;95752.94;;;18.09;nan
4617;BME280;2321;42.704;23.384;2023-09-19T06:07:11;95752.03;;;18.15;nan
4617;BME280;2321;42.704;23.384;2023-09-19T06:09:38;95742.97;;;18.22;nan
4617;BME280;2321;42.704;23.384;2023-09-19T06:12:05;95742.69;;;18.30;nan
4617;BME280;2321;42.704;23.384;2023-09-19T06:14:32;95747.47;;;18.40;nan
4617;BME280;2321;42.704;23.384;2023-09-19T06:16:58;95744.94;;;18.45;nan
4617;BME280;2321;42.704;23.384;2023-09-19T06:19:27;95741.28;;;18.51;nan
4617;BME280;2321;42.704;23.384;2023-09-19T06:21:53;95750.06;;;18.59;nan
4617;BME280;2321;42.704;23.384;2023-09-19T06:24:20;95740.47;;;18.63;nan
4617;BME280;2321;42.704;23.384;2023-09-19T06:26:46;95737.41;;;18.71;nan
4617;BME280;2321;42.704;23.384;2023-09-19T06:29:14;95741.38;;;18.81;nan
4617;BME280;2321;42.704;23.384;2023-09-19T06:31:41;95740.53;;;18.92;nan
4617;BME280;2321;42.704;23.384;2023-09-19T06:34:09;95734.31;;;19.04;nan
4617;BME280;2321;42.704;23.384;2023-09-19T06:36:38;95733.94;;;19.12;nan
4617;BME280;2321;42.704;23.384;2023-09-19T06:39:06;95732.41;;;19.16;nan
4617;BME280;2321;42.704;23.384;2023-09-19T06:41:36;95740.16;;;19.25;nan
4617;BME280;2321;42.704;23.384;2023-09-19T06:44:03;95740.34;;;19.35;nan
4617;BME280;2321;42.704;23.384;2023-09-19T06:46:30;95738.91;;;19.45;nan
4617;BME280;2321;42.704;23.384;2023-09-19T06:49:00;95738.53;;;19.53;nan
4617;BME280;2321;42.704;23.384;2023-09-19T06:51:31;95747.97;;;19.68;nan
4617;BME280;2321;42.704;23.384;2023-09-19T06:53:59;95752.41;;;19.74;nan
4617;BME280;2321;42.704;23.384;2023-09-19T06:56:27;95743.22;;;19.75;nan
4617;BME280;2321;42.704;23.384;2023-09-19T06:58:54;95744.06;;;19.76;nan
4617;BME280;2321;42.704;23.384;2023-09-19T07:01:20;95742.19;;;19.76;nan
4617;BME280;2321;42.704;23.384;2023-09-19T07:03:47;95746.03;;;19.80;nan
4617;BME280;2321;42.704;23.384;2023-09-19T07:06:14;95750.47;;;19.87;nan
4617;BME280;2321;42.704;23.384;2023-09-19T07:08:40;95755.97;;;19.92;nan
4617;BME280;2321;42.704;23.384;2023-09-19T07:11:10;95754.72;;;20.00;nan
4617;BME280;2321;42.704;23.384;2023-09-19T07:13:37;95752.94;;;20.06;nan
4617;BME280;2321;42.704;23.384;2023-09-19T07:16:04;95754.44;;;20.13;nan
4617;BME280;2321;42.704;23.384;2023-09-19T07:18:31;95759.13;;;20.18;nan
4617;BME280;2321;42.704;23.384;2023-09-19T07:20:58;95754.59;;;20.24;nan
4617;BME280;2321;42.704;23.384;2023-09-19T07:23:30;95755.75;;;20.28;nan
4617;BME280;2321;42.704;23.384;2023-09-19T07:26:00;95755.28;;;20.31;nan
4617;BME280;2321;42.704;23.384;2023-09-19T07:28:28;95752.81;;;20.30;nan
4617;BME280;2321;42.704;23.384;2023-09-19T07:30:55;95752.56;;;20.31;nan
4617;BME280;2321;42.704;23.384;2023-09-19T07:33:21;95740.78;;;20.38;nan
4617;BME280;2321;42.704;23.384;2023-09-19T07:35:50;95750.28;;;20.40;nan
4617;BME280;2321;42.704;23.384;2023-09-19T07:38:17;95750.59;;;20.44;nan
4617;BME280;2321;42.704;23.384;2023-09-19T07:40:44;95755.44;;;20.42;nan
4617;BME280;2321;42.704;23.384;2023-09-19T07:43:10;95746.84;;;20.45;nan
4617;BME280;2321;42.704;23.384;2023-09-19T07:45:38;95752.00;;;20.46;nan
4617;BME280;2321;42.704;23.384;2023-09-19T07:48:05;95748.56;;;20.51;nan
4617;BME280;2321;42.704;23.384;2023-09-19T07:50:38;95754.03;;;20.56;nan
4617;BME280;2321;42.704;23.384;2023-09-19T07:53:05;95755.19;;;20.61;nan
4617;BME280;2321;42.704;23.384;2023-09-19T07:55:32;95761.50;;;20.66;nan
4617;BME280;2321;42.704;23.384;2023-09-19T07:57:59;95758.03;;;20.71;nan
4617;BME280;2321;42.704;23.384;2023-09-19T08:00:25;95757.78;;;20.73;nan
4617;BME280;2321;42.704;23.384;2023-09-19T08:02:53;95761.38;;;20.78;nan
4617;BME280;2321;42.704;23.384;2023-09-19T08:05:22;95759.00;;;20.82;nan
4617;BME280;2321;42.704;23.384;2023-09-19T08:07:49;95756.91;;;20.89;nan
4617;BME280;2321;42.704;23.384;2023-09-19T08:10:16;95757.81;;;20.95;nan
4617;BME280;2321;42.704;23.384;2023-09-19T08:12:45;95747.06;;;21.00;nan
4617;BME280;2321;42.704;23.384;2023-09-19T08:15:12;95741.47;;;21.07;nan
4617;BME280;2321;42.704;23.384;2023-09-19T08:17:39;95731.53;;;21.13;nan
4617;BME280;2321;42.704;23.384;2023-09-19T08:20:08;95728.63;;;21.20;nan
4617;BME280;2321;42.704;23.384;2023-09-19T08:22:42;95723.22;;;21.20;nan
4617;BME280;2321;42.704;23.384;2023-09-19T08:25:12;95725.25;;;21.30;nan
4617;BME280;2321;42.704;23.384;2023-09-19T08:27:39;95719.63;;;21.37;nan
4617;BME280;2321;42.704;23.384;2023-09-19T08:30:06;95714.53;;;21.40;nan
4617;BME280;2321;42.704;23.384;2023-09-19T08:32:36;95720.56;;;21.48;nan
4617;BME280;2321;42.704;23.384;2023-09-19T08:35:03;95717.09;;;21.52;nan
4617;BME280;2321;42.704;23.384;2023-09-19T08:37:31;95723.09;;;21.60;nan
4617;BME280;2321;42.704;23.384;2023-09-19T08:39:58;95736.72;;;21.65;nan
4617;BME280;2321;42.704;23.384;2023-09-19T08:42:24;95726.19;;;21.69;nan
4617;BME280;2321;42.704;23.384;2023-09-19T08:44:53;95735.16;;;21.74;nan
4617;BME280;2321;42.704;23.384;2023-09-19T08:47:26;95727.66;;;21.82;nan
4617;BME280;2321;42.704;23.384;2023-09-19T08:49:58;95717.44;;;21.89;nan
4617;BME280;2321;42.704;23.384;2023-09-19T08:52:28;95716.97;;;21.92;nan
4617;BME280;2321;42.704;23.384;2023-09-19T08:55:01;95719.94;;;21.96;nan
4617;BME280;2321;42.704;23.384;2023-09-19T08:57:33;95717.00;;;21.97;nan
4617;BME280;2321;42.704;23.384;2023-09-19T09:00:01;95719.19;;;22.01;nan
4617;BME280;2321;42.704;23.384;2023-09-19T09:02:30;95715.66;;;22.00;nan
4617;BME280;2321;42.704;23.384;2023-09-19T09:05:00;95716.22;;;22.02;nan
4617;BME280;2321;42.704;23.384;2023-09-19T09:07:30;95708.38;;;22.06;nan
4617;BME280;2321;42.704;23.384;2023-09-19T09:10:01;95705.66;;;22.06;nan
4617;BME280;2321;42.704;23.384;2023-09-19T09:12:28;95708.69;;;22.09;nan
4617;BME280;2321;42.704;23.384;2023-09-19T09:14:56;95704.09;;;22.10;nan
4617;BME280;2321;42.704;23.384;2023-09-19T09:17:22;95706.59;;;22.17;nan
4617;BME280;2321;42.704;23.384;2023-09-19T09:19:50;95703.91;;;22.22;nan
4617;BME280;2321;42.704;23.384;2023-09-19T09:22:18;95700.97;;;22.29;nan
4617;BME280;2321;42.704;23.384;2023-09-19T09:24:52;95693.38;;;22.31;nan
4617;BME280;2321;42.704;23.384;2023-09-19T09:27:21;95687.22;;;22.41;nan
4617;BME280;2321;42.704;23.384;2023-09-19T09:29:50;95687.28;;;22.51;nan
4617;BME280;2321;42.704;23.384;2023-09-19T09:32:17;95687.34;;;22.62;nan
4617;BME280;2321;42.704;23.384;2023-09-19T09:34:45;95689.88;;;22.74;nan
4617;BME280;2321;42.704;23.384;2023-09-19T09:37:13;95687.22;;;22.84;nan
4617;BME280;2321;42.704;23.384;2023-09-19T09:39:40;95678.28;;;22.94;nan
4617;BME280;2321;42.704;23.384;2023-09-19T09:42:25;95672.63;;;23.01;nan
4617;BME280;2321;42.704;23.384;2023-09-19T09:45:07;95668.84;;;23.13;nan
4617;BME280;2321;42.704;23.384;2023-09-19T09:47:45;95662.94;;;23.26;nan
4617;BME280;2321;42.704;23.384;2023-09-19T09:50:29;95667.03;;;23.39;nan
4617;BME280;2321;42.704;23.384;2023-09-19T09:53:05;95662.44;;;23.50;nan
4617;BME280;2321;42.704;23.384;2023-09-19T09:55:56;95664.06;;;23.51;nan
4617;BME280;2321;42.704;23.384;2023-09-19T09:58:25;95665.47;;;23.54;nan
4617;BME280;2321;42.704;23.384;2023-09-19T10:00:54;95653.78;;;23.59;nan
4617;BME280;2321;42.704;23.384;2023-09-19T10:03:24;95650.53;;;23.67;nan
4617;BME280;2321;42.704;23.384;2023-09-19T10:05:57;95655.16;;;23.67;nan
4617;BME280;2321;42.704;23.384;2023-09-19T10:08:25;95657.03;;;23.66;nan
4617;BME280;2321;42.704;23.384;2023-09-19T10:10:56;95652.69;;;23.65;nan
4617;BME280;2321;42.704;23.384;2023-09-19T10:13:31;95657.06;;;23.61;nan
4617;BME280;2321;42.704;23.384;2023-09-19T10:16:04;95655.41;;;23.60;nan
4617;BME280;2321;42.704;23.384;2023-09-19T10:18:35;95652.41;;;23.56;nan
4617;BME280;2321;42.704;23.384;2023-09-19T10:21:04;95646.19;;;23.61;nan
4617;BME280;2321;42.704;23.384;2023-09-19T10:23:32;95644.00;;;23.63;nan
4617;BME280;2321;42.704;23.384;2023-09-19T10:26:02;95641.81;;;23.65;nan
4617;BME280;2321;42.704;23.384;2023-09-19T10:28:31;95646.72;;;23.68;nan
4617;BME280;2321;42.704;23.384;2023-09-19T10:30:58;95640.72;;;23.71;nan
4617;BME280;2321;42.704;23.384;2023-09-19T10:33:27;95639.41;;;23.79;nan
4617;BME280;2321;42.704;23.384;2023-09-19T10:36:00;95638.56;;;23.84;nan
4617;BME280;2321;42.704;23.384;2023-09-19T10:38:27;95631.22;;;23.90;nan
4617;BME280;2321;42.704;23.384;2023-09-19T10:40:55;95634.75;;;23.96;nan
4617;BME280;2321;42.704;23.384;2023-09-19T10:43:25;95631.22;;;24.00;nan
4617;BME280;2321;42.704;23.384;2023-09-19T10:45:54;95629.56;;;24.04;nan
4617;BME280;2321;42.704;23.384;2023-09-19T10:48:22;95621.97;;;24.07;nan
4617;BME280;2321;42.704;23.384;2023-09-19T10:50:51;95621.69;;;24.08;nan
4617;BME280;2321;42.704;23.384;2023-09-19T10:53:20;95620.59;;;24.09;nan
4617;BME280;2321;42.704;23.384;2023-09-19T10:55:49;95629.31;;;24.11;nan
4617;BME280;2321;42.704;23.384;2023-09-19T10:58:24;95618.16;;;24.13;nan
4617;BME280;2321;42.704;23.384;2023-09-19T11:00:55;95609.72;;;24.14;nan
4617;BME280;2321;42.704;23.384;2023-09-19T11:03:26;95617.31;;;24.18;nan
4617;BME280;2321;42.704;23.384;2023-09-19T11:06:03;95614.88;;;24.21;nan
4617;BME280;2321;42.704;23.384;2023-09-19T11:16:38;95605.91;;;24.36;nan
4617;BME280;2321;42.704;23.384;2023-09-19T11:19:04;95601.53;;;24.41;nan
4617;BME280;2321;42.704;23.384;2023-09-19T11:21:39;95598.25;;;24.44;nan
4617;BME280;2321;42.704;23.384;2023-09-19T11:26:57;95597.16;;;24.50;nan
4617;BME280;2321;42.704;23.384;2023-09-19T11:29:35;95596.31;;;24.55;nan
4617;BME280;2321;42.704;23.384;2023-09-19T11:32:04;95598.19;;;24.59;nan
4617;BME280;2321;42.704;23.384;2023-09-19T11:34:37;95589.47;;;24.63;nan
4617;BME280;2321;42.704;23.384;2023-09-19T11:37:18;95587.81;;;24.67;nan
4617;BME280;2321;42.704;23.384;2023-09-19T11:40:05;95575.03;;;24.67;nan
4617;BME280;2321;42.704;23.384;2023-09-19T11:42:41;95567.94;;;24.66;nan
4617;BME280;2321;42.704;23.384;2023-09-19T11:45:07;95566.31;;;24.70;nan
4617;BME280;2321;42.704;23.384;2023-09-19T11:47:35;95560.59;;;24.67;nan
4617;BME280;2321;42.704;23.384;2023-09-19T11:50:03;95545.63;;;24.75;nan
4617;BME280;2321;42.704;23.384;2023-09-19T11:52:30;95545.28;;;24.87;nan
4617;BME280;2321;42.704;23.384;2023-09-19T11:54:59;95549.81;;;24.97;nan
4617;BME280;2321;42.704;23.384;2023-09-19T11:57:27;95548.47;;;25.05;nan
4617;BME280;2321;42.704;23.384;2023-09-19T11:59:55;95549.50;;;25.09;nan
4617;BME280;2321;42.704;23.384;2023-09-19T12:02:28;95545.09;;;25.18;nan
4617;BME280;2321;42.704;23.384;2023-09-19T12:05:02;95547.25;;;25.21;nan
4617;BME280;2321;42.704;23.384;2023-09-19T12:07:29;95546.69;;;25.24;nan
4617;BME280;2321;42.704;23.384;2023-09-19T12:10:02;95544.47;;;25.32;nan
4617;BME280;2321;42.704;23.384;2023-09-19T12:12:29;95536.19;;;25.42;nan
4617;BME280;2321;42.704;23.384;2023-09-19T12:14:58;95531.19;;;25.55;nan
4617;BME280;2321;42.704;23.384;2023-09-19T12:17:34;95521.53;;;25.68;nan
4617;BME280;2321;42.704;23.384;2023-09-19T12:20:03;95521.66;;;25.87;nan
4617;BME280;2321;42.704;23.384;2023-09-19T12:22:39;95524.16;;;26.08;nan
4617;BME280;2321;42.704;23.384;2023-09-19T12:25:06;95513.31;;;26.28;nan
4617;BME280;2321;42.704;23.384;2023-09-19T12:27:41;95512.31;;;26.43;nan
4617;BME280;2321;42.704;23.384;2023-09-19T12:30:09;95512.50;;;26.52;nan
4617;BME280;2321;42.704;23.384;2023-09-19T12:32:41;95515.31;;;26.66;nan
4617;BME280;2321;42.704;23.384;2023-09-19T12:35:26;95510.75;;;26.81;nan
4617;BME280;2321;42.704;23.384;2023-09-19T12:37:54;95509.50;;;26.92;nan
4617;BME280;2321;42.704;23.384;2023-09-19T12:40:22;95498.91;;;27.05;nan
4617;BME280;2321;42.704;23.384;2023-09-19T12:42:55;95498.78;;;27.15;nan
4617;BME280;2321;42.704;23.384;2023-09-19T20:16:32;62246.03;;;31.64;100.00
4617;BME280;2321;42.704;23.384;2023-09-19T20:38:36;95803.03;;;19.67;nan
4617;BME280;2321;42.704;23.384;2023-09-19T20:41:05;95811.13;;;19.37;nan
4617;BME280;2321;42.704;23.384;2023-09-19T20:43:32;95811.03;;;19.20;nan
4617;BME280;2321;42.704;23.384;2023-09-19T20:46:02;95818.41;;;19.13;nan
4617;BME280;2321;42.704;23.384;2023-09-19T20:48:30;95825.13;;;19.10;nan
4617;BME280;2321;42.704;23.384;2023-09-19T20:51:04;95827.47;;;19.07;nan
4617;BME280;2321;42.704;23.384;2023-09-19T20:53:31;95837.66;;;19.04;nan
4617;BME280;2321;42.704;23.384;2023-09-19T20:56:00;95851.38;;;19.03;nan
4617;BME280;2321;42.704;23.384;2023-09-19T20:58:28;95864.97;;;19.08;nan
4617;BME280;2321;42.704;23.384;2023-09-19T21:00:59;95875.66;;;19.15;nan
4617;BME280;2321;42.704;23.384;2023-09-19T21:03:29;95873.44;;;19.12;nan
4617;BME280;2321;42.704;23.384;2023-09-19T21:05:59;95862.44;;;19.13;nan
4617;BME280;2321;42.704;23.384;2023-09-19T21:08:26;95843.63;;;19.19;nan
4617;BME280;2321;42.704;23.384;2023-09-19T21:10:52;95845.41;;;19.25;nan
4617;BME280;2321;42.704;23.384;2023-09-19T21:13:21;95848.94;;;19.25;nan
4617;BME280;2321;42.704;23.384;2023-09-19T21:15:47;95842.13;;;19.23;nan
4617;BME280;2321;42.704;23.384;2023-09-19T21:18:14;95836.38;;;19.19;nan
4617;BME280;2321;42.704;23.384;2023-09-19T21:20:41;95828.28;;;19.19;nan
4617;BME280;2321;42.704;23.384;2023-09-19T21:23:07;95824.75;;;19.19;nan
4617;BME280;2321;42.704;23.384;2023-09-19T21:25:39;95814.44;;;19.27;nan
4617;BME280;2321;42.704;23.384;2023-09-19T21:28:06;95788.94;;;19.35;nan
4617;BME280;2321;42.704;23.384;2023-09-19T21:30:34;95778.47;;;19.39;nan
4617;BME280;2321;42.704;23.384;2023-09-19T21:33:01;95756.00;;;19.51;nan
4617;BME280;2321;42.704;23.384;2023-09-19T21:35:31;95545.59;;;18.26;nan
4617;BME280;2321;42.704;23.384;2023-09-19T21:37:58;95738.06;;;19.56;nan
4617;BME280;2321;42.704;23.384;2023-09-19T21:40:24;95728.88;;;19.57;nan
4617;BME280;2321;42.704;23.384;2023-09-19T21:42:51;95719.94;;;19.57;nan
4617;BME280;2321;42.704;23.384;2023-09-19T21:45:18;95704.00;;;19.55;nan